SBOSBO BJV / LTFE
Speedbird OnlineSpeedbird Online BJV / LTFE

Milas Bodrum International Airport
10:59 33°C

Location Bodrum, Turkey
Latitude: 37.25059890749999
Longitude: 27.6643009186
Local Time 10:59 on 18 Jul 2024
UTC +3 hours (Europe/Istanbul)
Currency £1 equals TRY 43.03
METAR LTFE 180720Z 29005KT 260V320 CAVOK 33/22 Q1006 NOSIG RMK RWY10 31007KT
TAF TAF LTFE 180440Z 1806/1906 VRB02KT CAVOK BECMG 1808/1810 26015KT FEW035 BECMG 1816/1818 VRB02KT CAVOK
Weather As Of 18 Jul 2024 10:59
Description Clear sky
Wind 9 km/h from West (290°)
Cloud Cover 0%
Precipitation Rain: none, Snow: none
Sunrise 06:02
Sunset 20:27
NOTAM 10 active NOTAM
Rotations During the last 90 days there were
23 flights from LHR
24 flights to LHR
Lounges TAV Comfort Lounge, International Terminal
Web Wikipedia
Codes IATA: BJV
ICAO: LTFE
Altitude 6 Meter / 21 Feet
Distance 2,676 KM / 1,663 Miles
from London.
Runways
RunwayLength (m)Surface
10L3000Concrete
10R2940Concrete
28L2940Concrete
28R3000Concrete
Radio
TypeDescriptionFrequency
APPMENDERES APP119.5
APPMENDERES APP119.775
ATISATIS128.5
GNDGND121.95
TWRTWR120.5
Live ATC



Support Speedbird Online

© 2017-2024 Speedbird Online